Time;durP1;ratioP1;P1;durP2;ratioP2;P2;SDS_P1;SDS_P2;PMS_P1;PMS_P2;Temp;Humidity;BMP_temperature;BMP_pressure;BME280_temperature;BME280_humidity;BME280_pressure;Samples;Min_cycle;Max_cycle;Signal;HPM_P1;HPM_P2
2022/09/07 00:00:14;;;;;;;3.13;2.83;;;17.80;99.90;;;;;;5035249;28;20446;-71
2022/09/07 00:02:41;;;;;;;2.53;2.33;;;17.80;99.90;;;;;;5035024;28;20450;-71
2022/09/07 00:05:09;;;;;;;3.00;2.80;;;17.80;99.90;;;;;;5035165;28;20447;-71
2022/09/07 00:07:37;;;;;;;3.00;2.80;;;17.70;99.90;;;;;;5035319;28;20487;-71
2022/09/07 00:10:04;;;;;;;2.80;2.20;;;17.70;99.90;;;;;;5035784;28;20473;-71
2022/09/07 00:12:30;;;;;;;2.53;2.33;;;17.70;99.90;;;;;;5035677;28;20949;-71
2022/09/07 00:14:57;;;;;;;2.57;2.13;;;17.70;99.90;;;;;;5035377;28;20500;-71
2022/09/07 00:17:24;;;;;;;2.73;2.53;;;17.60;99.90;;;;;;5034669;28;20532;-71
2022/09/07 00:19:51;;;;;;;7.43;3.67;;;17.60;99.90;;;;;;5035222;28;20446;-71
2022/09/07 00:22:17;;;;;;;3.33;2.33;;;17.60;99.90;;;;;;5035210;28;20455;-71
2022/09/07 00:24:45;;;;;;;9.97;3.00;;;17.60;99.90;;;;;;5034876;28;20458;-71
2022/09/07 00:27:12;;;;;;;6.40;2.70;;;17.50;99.90;;;;;;5034314;28;20490;-71
2022/09/07 00:29:39;;;;;;;7.10;2.70;;;17.50;99.90;;;;;;5034644;28;20454;-71
2022/09/07 00:32:06;;;;;;;4.93;2.73;;;17.40;99.90;;;;;;5034397;28;20943;-71
2022/09/07 00:34:33;;;;;;;2.70;2.50;;;17.40;99.90;;;;;;5034361;28;20450;-71
2022/09/07 00:36:59;;;;;;;3.70;2.30;;;17.30;99.90;;;;;;5034799;28;20463;-71
2022/09/07 00:39:26;;;;;;;5.00;3.00;;;17.30;99.90;;;;;;5034240;28;20949;-71
2022/09/07 00:41:54;;;;;;;3.67;2.43;;;17.30;99.90;;;;;;5033622;28;20447;-71
2022/09/07 00:45:00;;;;;;;4.10;3.20;;;17.30;99.90;;;;;;5034522;28;20455;-71
2022/09/07 00:47:34;;;;;;;3.10;2.80;;;17.20;99.90;;;;;;4973495;28;20484;-71
2022/09/07 00:50:05;;;;;;;4.70;2.33;;;17.20;99.90;;;;;;5027206;28;20458;-71
2022/09/07 00:52:33;;;;;;;2.57;2.10;;;17.10;99.90;;;;;;5034628;28;20431;-72
2022/09/07 00:55:02;;;;;;;2.77;2.50;;;17.10;99.90;;;;;;5034484;28;20450;-72
2022/09/07 00:57:31;;;;;;;2.80;2.57;;;17.10;99.90;;;;;;5034113;28;20463;-71
2022/09/07 00:59:59;;;;;;;2.20;2.10;;;17.00;99.90;;;;;;5033915;28;20451;-71
2022/09/07 01:02:26;;;;;;;3.07;2.50;;;17.00;99.90;;;;;;5033844;28;20450;-71
2022/09/07 01:05:01;;;;;;;3.80;2.50;;;17.00;99.90;;;;;;5034018;28;20446;-71
2022/09/07 01:07:28;;;;;;;2.93;2.60;;;16.90;99.90;;;;;;5033952;28;20485;-71
2022/09/07 01:09:55;;;;;;;2.90;2.50;;;16.90;99.90;;;;;;5033516;28;20516;-72
2022/09/07 01:12:22;;;;;;;4.50;2.20;;;16.90;99.90;;;;;;5033824;28;20947;-71
2022/09/07 01:14:52;;;;;;;2.60;2.10;;;16.80;99.90;;;;;;5034167;28;20442;-71
2022/09/07 01:17:29;;;;;;;4.20;2.87;;;16.80;99.90;;;;;;5033378;28;20896;-71
2022/09/07 01:20:39;;;;;;;3.37;2.27;;;16.70;99.90;;;;;;5033850;28;20808;-71
2022/09/07 01:23:42;;;;;;;2.27;2.07;;;16.70;99.90;;;;;;4972752;28;20798;-71
2022/09/07 01:26:35;;;;;;;3.13;2.90;;;16.70;99.90;;;;;;4972531;28;20457;-71
2022/09/07 01:29:12;;;;;;;3.20;2.60;;;16.70;99.90;;;;;;5025475;28;20493;-71
2022/09/07 01:31:46;;;;;;;7.03;2.77;;;16.70;99.90;;;;;;5033662;28;20928;-71
2022/09/07 01:34:20;;;;;;;3.57;2.40;;;16.60;99.90;;;;;;5033585;28;20431;-71
2022/09/07 01:36:55;;;;;;;4.70;2.80;;;16.60;99.90;;;;;;5033171;28;20837;-71
2022/09/07 01:39:28;;;;;;;2.97;2.70;;;16.50;99.90;;;;;;5033492;28;20449;-71
2022/09/07 01:41:58;;;;;;;3.43;2.53;;;16.50;99.90;;;;;;5033493;28;20431;-71
2022/09/07 01:44:30;;;;;;;6.53;2.57;;;16.50;99.90;;;;;;5033399;28;20446;-71
2022/09/07 01:47:01;;;;;;;4.20;2.47;;;16.50;99.90;;;;;;5033213;28;20470;-71
2022/09/07 01:49:34;;;;;;;3.70;2.53;;;16.50;99.90;;;;;;5033227;28;20442;-71
2022/09/07 01:52:13;;;;;;;3.20;2.60;;;16.40;99.90;;;;;;5032985;28;20438;-71
2022/09/07 01:54:45;;;;;;;4.10;2.30;;;16.40;99.90;;;;;;5034138;28;20442;-71
2022/09/07 01:57:16;;;;;;;2.90;2.40;;;16.40;99.90;;;;;;5033174;28;20462;-71
2022/09/07 01:59:48;;;;;;;2.67;2.23;;;16.40;99.90;;;;;;5033286;28;20791;-71
2022/09/07 02:02:19;;;;;;;5.93;2.73;;;16.40;99.90;;;;;;5033401;28;20912;-71
2022/09/07 02:04:52;;;;;;;4.30;2.73;;;16.30;99.90;;;;;;5032943;28;20964;-71
2022/09/07 02:07:25;;;;;;;3.10;2.87;;;16.30;99.90;;;;;;5033257;28;20487;-71
2022/09/07 02:09:56;;;;;;;6.53;2.63;;;16.30;99.90;;;;;;5033036;28;20626;-71
2022/09/07 02:12:29;;;;;;;6.60;2.53;;;16.30;99.90;;;;;;5033352;28;20435;-71
2022/09/07 02:15:02;;;;;;;5.37;2.10;;;16.30;99.90;;;;;;5033297;28;20430;-71
2022/09/07 02:17:33;;;;;;;4.70;2.40;;;16.20;99.90;;;;;;5060182;22;20490;-82
2022/09/07 02:20:07;;;;;;;2.90;2.20;;;16.20;99.90;;;;;;5037988;28;20430;-82
2022/09/07 02:22:41;;;;;;;3.27;2.50;;;16.10;99.90;;;;;;5040922;28;20756;-82
2022/09/07 02:25:10;;;;;;;2.57;2.23;;;16.10;99.90;;;;;;5039734;28;20875;-81
2022/09/07 02:27:44;;;;;;;9.90;2.73;;;16.10;99.90;;;;;;5041549;28;20493;-82
2022/09/07 02:30:13;;;;;;;2.63;2.43;;;16.10;99.90;;;;;;5043914;28;20439;-82
2022/09/07 02:32:40;;;;;;;3.40;2.30;;;16.10;99.90;;;;;;5042023;28;20450;-82
2022/09/07 02:35:08;;;;;;;5.80;2.70;;;16.10;1.00;;;;;;5044706;28;20557;-85
2022/09/07 02:37:37;;;;;;;6.07;3.70;;;16.00;99.90;;;;;;5047494;28;20978;-83
2022/09/07 02:40:04;;;;;;;3.60;2.80;;;16.00;1.00;;;;;;5051221;28;20550;-82
2022/09/07 02:42:33;;;;;;;2.80;2.60;;;16.00;1.00;;;;;;5051709;28;20470;-82
2022/09/07 02:45:01;;;;;;;2.80;2.57;;;15.90;1.00;;;;;;5050550;28;20469;-83
2022/09/07 02:47:40;;;;;;;2.80;2.60;;;15.90;1.00;;;;;;5050899;28;20482;-83
2022/09/07 02:50:21;;;;;;;7.37;3.20;;;15.90;1.00;;;;;;5051098;28;20447;-82
2022/09/07 02:53:02;;;;;;;3.60;2.80;;;15.90;1.00;;;;;;5051212;28;20439;-83
2022/09/07 02:55:41;;;;;;;6.30;2.70;;;15.90;1.00;;;;;;5050554;28;20427;-82
2022/09/07 02:58:18;;;;;;;3.43;3.13;;;15.90;1.00;;;;;;5052940;28;20455;-82
2022/09/07 03:00:55;;;;;;;5.60;2.63;;;15.80;1.00;;;;;;5051133;28;20848;-82
2022/09/07 03:03:35;;;;;;;2.33;2.13;;;15.80;1.00;;;;;;5049999;28;20490;-81
2022/09/07 03:06:08;;;;;;;3.90;2.80;;;15.80;1.00;;;;;;5050515;28;21052;-82
2022/09/07 03:08:38;;;;;;;3.03;2.50;;;15.70;1.00;;;;;;5050119;28;20462;-83
2022/09/07 03:11:08;;;;;;;4.40;3.50;;;15.70;1.00;;;;;;5053447;28;20488;-83
2022/09/07 03:13:35;;;;;;;4.50;2.63;;;15.70;1.00;;;;;;5053561;28;20505;-83
2022/09/07 03:16:02;;;;;;;3.93;2.87;;;;;;;;;;5052063;28;20506;-82
2022/09/07 03:18:30;;;;;;;3.80;2.70;;;15.70;1.00;;;;;;5052181;28;20929;-83
2022/09/07 03:20:57;;;;;;;10.50;2.83;;;15.60;1.00;;;;;;5051164;28;20516;-82
2022/09/07 03:23:24;;;;;;;2.93;2.73;;;15.60;1.00;;;;;;5051298;28;20447;-83
2022/09/07 03:25:51;;;;;;;5.63;2.50;;;15.60;1.00;;;;;;5052968;28;20446;-83
2022/09/07 03:28:18;;;;;;;3.13;2.93;;;15.60;1.00;;;;;;5053105;28;20545;-83
2022/09/07 03:30:47;;;;;;;3.13;2.83;;;15.60;1.00;;;;;;5053210;28;20466;-83
2022/09/07 03:33:14;;;;;;;4.90;3.10;;;15.50;1.00;;;;;;5051506;28;20454;-82
2022/09/07 03:35:43;;;;;;;3.20;2.67;;;15.50;1.00;;;;;;5049493;28;20443;-82
2022/09/07 03:38:10;;;;;;;5.20;2.80;;;15.50;1.00;;;;;;5052912;28;20554;-82
2022/09/07 03:40:37;;;;;;;3.43;2.57;;;15.40;1.00;;;;;;5053067;28;20530;-82
2022/09/07 03:43:04;;;;;;;3.70;2.80;;;15.40;1.00;;;;;;5049955;28;20446;-81
2022/09/07 03:45:31;;;;;;;4.00;3.70;;;15.40;1.00;;;;;;5047295;28;20447;-81
2022/09/07 03:47:58;;;;;;;5.60;3.60;;;15.40;1.00;;;;;;5047992;28;20834;-82
2022/09/07 03:50:25;;;;;;;5.47;3.87;;;15.40;1.00;;;;;;5050420;28;20448;-83
2022/09/07 03:52:56;;;;;;;4.97;2.97;;;15.40;1.00;;;;;;5050183;28;20447;-82
2022/09/07 03:55:23;;;;;;;5.30;2.83;;;15.40;1.00;;;;;;5050131;28;20511;-83
2022/09/07 03:57:50;;;;;;;6.07;3.07;;;15.40;1.00;;;;;;5056319;28;20467;-84
2022/09/07 04:00:17;;;;;;;4.07;2.97;;;15.40;1.00;;;;;;5060203;28;20468;-83
2022/09/07 04:02:44;;;;;;;4.87;3.37;;;15.30;1.00;;;;;;5059937;28;20430;-81
2022/09/07 04:05:11;;;;;;;4.57;3.60;;;15.40;1.00;;;;;;5053847;28;20443;-82
2022/09/07 04:07:38;;;;;;;7.80;4.63;;;15.30;1.00;;;;;;5052891;28;20917;-83
2022/09/07 04:10:08;;;;;;;6.03;5.20;;;15.30;1.00;;;;;;5052095;28;20435;-82
2022/09/07 04:12:35;;;;;;;5.53;5.00;;;15.20;1.00;;;;;;5051929;28;20477;-82
2022/09/07 04:15:01;;;;;;;6.27;3.83;;;15.20;1.00;;;;;;5051923;28;20458;-84
2022/09/07 04:17:40;;;;;;;6.20;3.23;;;15.20;1.00;;;;;;5052315;28;20542;-82
2022/09/07 04:20:09;;;;;;;5.83;3.87;;;15.20;1.00;;;;;;5052856;28;20454;-82
2022/09/07 04:22:35;;;;;;;4.63;3.37;;;15.20;1.00;;;;;;5052119;28;20451;-83
2022/09/07 04:25:06;;;;;;;4.47;3.10;;;15.20;1.00;;;;;;5049319;28;20473;-81
2022/09/07 04:27:36;;;;;;;5.27;3.77;;;15.10;1.00;;;;;;5052595;28;20474;-81
2022/09/07 04:30:10;;;;;;;6.73;4.07;;;15.10;1.00;;;;;;5057218;28;20435;-83
2022/09/07 04:32:42;;;;;;;19.73;13.90;;;15.10;1.00;;;;;;5055930;28;20427;-85
2022/09/07 04:35:10;;;;;;;9.63;3.93;;;15.10;1.00;;;;;;5052513;28;20436;-83
2022/09/07 04:37:37;;;;;;;5.80;4.13;;;15.10;1.00;;;;;;5050595;28;20494;-82
2022/09/07 04:40:04;;;;;;;8.90;3.63;;;15.00;1.00;;;;;;5051433;28;20451;-82
2022/09/07 04:42:32;;;;;;;7.00;3.80;;;15.00;1.00;;;;;;5051566;28;20451;-83
2022/09/07 04:45:00;;;;;;;3.67;3.37;;;15.00;1.00;;;;;;5051194;28;20438;-81
2022/09/07 04:47:30;;;;;;;10.03;3.47;;;15.00;1.00;;;;;;5051707;28;20490;-81
2022/09/07 04:49:58;;;;;;;3.20;2.67;;;15.00;1.00;;;;;;5051039;28;20471;-81
2022/09/07 04:52:26;;;;;;;5.67;4.27;;;15.00;1.00;;;;;;5050134;28;20477;-82
2022/09/07 04:54:53;;;;;;;5.50;2.85;;;14.90;1.00;;;;;;5049531;28;20471;-81
2022/09/07 04:57:23;;;;;;;4.17;3.10;;;14.90;1.00;;;;;;5050050;28;20228;-81
2022/09/07 04:59:50;;;;;;;7.30;3.37;;;14.90;1.00;;;;;;5049156;28;20449;-81
2022/09/07 05:02:18;;;;;;;3.93;3.50;;;14.80;1.00;;;;;;5049262;28;20990;-82
2022/09/07 05:04:46;;;;;;;3.90;3.60;;;14.80;1.00;;;;;;5047587;28;20507;-82
2022/09/07 05:07:13;;;;;;;10.57;3.97;;;14.80;1.00;;;;;;5049316;28;20493;-81
2022/09/07 05:09:40;;;;;;;9.43;3.80;;;14.80;1.00;;;;;;5051380;28;20574;-80
2022/09/07 05:12:07;;;;;;;5.80;4.37;;;14.80;1.00;;;;;;5049689;28;20477;-81
2022/09/07 05:14:33;;;;;;;5.73;3.70;;;14.90;1.00;;;;;;5049568;28;20533;-80
2022/09/07 05:17:01;;;;;;;3.43;3.13;;;14.90;1.00;;;;;;5047350;28;20488;-80
2022/09/07 05:19:29;;;;;;;5.70;3.30;;;14.90;1.00;;;;;;5049372;28;20446;-80
2022/09/07 05:21:58;;;;;;;5.10;3.70;;;14.90;1.00;;;;;;5049077;28;20522;-82
2022/09/07 05:24:27;;;;;;;5.80;3.70;;;15.00;1.00;;;;;;5049451;28;20451;-81
2022/09/07 05:26:54;;;;;;;159.77;19.83;;;15.00;1.00;;;;;;5048488;28;20477;-81
2022/09/07 05:29:21;;;;;;;14.90;6.73;;;15.00;1.00;;;;;;5047877;28;20529;-81
2022/09/07 05:31:48;;;;;;;7.07;4.10;;;15.00;1.00;;;;;;5048027;28;20451;-82
2022/09/07 05:34:15;;;;;;;12.70;4.53;;;15.00;1.00;;;;;;5048552;28;20482;-83
2022/09/07 05:36:43;;;;;;;10.83;3.73;;;15.00;1.00;;;;;;5046766;28;20466;-80
2022/09/07 05:39:10;;;;;;;78.50;13.30;;;15.00;1.00;;;;;;5046105;28;20458;-80
2022/09/07 05:41:38;;;;;;;111.80;16.07;;;15.10;1.00;;;;;;5044045;28;20937;-81
2022/09/07 05:44:05;;;;;;;35.97;6.47;;;15.10;1.00;;;;;;5043176;28;20486;-81
2022/09/07 05:46:32;;;;;;;451.83;45.27;;;15.10;1.00;;;;;;5044764;28;20466;-81
2022/09/07 05:49:01;;;;;;;29.60;6.00;;;15.10;1.00;;;;;;5045188;28;20488;-80
2022/09/07 05:51:28;;;;;;;11.30;4.50;;;15.20;1.00;;;;;;5044142;28;20446;-81
2022/09/07 05:53:57;;;;;;;6.67;4.07;;;15.30;1.00;;;;;;5046013;28;20616;-81
2022/09/07 05:56:24;;;;;;;4.60;3.37;;;15.30;1.00;;;;;;5047409;28;20475;-81
2022/09/07 05:58:50;;;;;;;6.57;4.10;;;15.30;1.00;;;;;;5046067;28;20529;-81
2022/09/07 06:01:18;;;;;;;10.50;4.17;;;15.40;1.00;;;;;;5046494;28;20453;-84
2022/09/07 06:03:45;;;;;;;10.30;4.40;;;15.40;1.00;;;;;;5043259;28;20446;-82
2022/09/07 06:06:14;;;;;;;6.03;3.90;;;15.60;3.50;;;;;;5046874;28;20451;-81
2022/09/07 06:08:45;;;;;;;15.70;5.10;;;15.50;1.00;;;;;;5045766;28;20497;-82
2022/09/07 06:11:16;;;;;;;12.60;4.33;;;15.60;1.00;;;;;;5046890;28;20488;-81
2022/09/07 06:13:43;;;;;;;13.50;5.20;;;15.60;1.00;;;;;;5045215;28;20437;-83
2022/09/07 06:16:11;;;;;;;7.20;4.60;;;15.70;1.00;;;;;;5045705;28;20492;-80
2022/09/07 06:18:40;;;;;;;20.20;4.57;;;15.80;1.00;;;;;;5044329;28;20458;-81
2022/09/07 06:21:09;;;;;;;8.40;4.37;;;15.80;1.00;;;;;;5044943;28;20489;-82
2022/09/07 06:23:37;;;;;;;12.17;4.40;;;15.90;1.00;;;;;;5045258;28;20446;-81
2022/09/07 06:26:05;;;;;;;19.10;5.33;;;16.30;1.00;;;;;;5045798;28;20449;-80
2022/09/07 06:28:36;;;;;;;12.83;3.93;;;16.10;1.00;;;;;;5044115;28;20452;-82
2022/09/07 06:31:08;;;;;;;9.53;4.70;;;16.20;1.00;;;;;;5045280;28;20434;-81
2022/09/07 06:33:35;;;;;;;15.70;6.33;;;16.20;1.00;;;;;;5045194;28;20431;-81
2022/09/07 06:36:03;;;;;;;17.17;5.20;;;16.20;1.00;;;;;;5043634;28;20447;-79
2022/09/07 06:38:32;;;;;;;10.20;7.03;;;16.30;1.00;;;;;;5047163;28;20458;-82
2022/09/07 06:41:02;;;;;;;8.20;4.70;;;16.40;1.00;;;;;;5047355;28;20477;-81
2022/09/07 06:43:29;;;;;;;9.27;4.80;;;16.40;1.00;;;;;;5049514;28;20472;-82
2022/09/07 06:45:59;;;;;;;6.17;4.20;;;16.50;1.00;;;;;;5047043;28;20450;-81
2022/09/07 06:48:30;;;;;;;8.47;4.40;;;16.40;1.00;;;;;;5048205;28;20477;-81
2022/09/07 06:50:59;;;;;;;10.73;4.87;;;16.50;1.00;;;;;;5048776;28;20434;-81
2022/09/07 06:53:26;;;;;;;10.73;4.70;;;16.60;1.00;;;;;;5050062;28;20963;-82
2022/09/07 06:55:53;;;;;;;5.70;4.50;;;16.60;1.00;;;;;;5047670;28;21043;-81
2022/09/07 06:58:20;;;;;;;60.67;9.00;;;16.60;1.00;;;;;;5047425;28;20545;-82
2022/09/07 07:00:47;;;;;;;9.10;4.80;;;16.60;1.00;;;;;;5045799;28;20462;-80
2022/09/07 07:03:15;;;;;;;8.50;4.60;;;16.60;1.00;;;;;;5048429;28;20442;-79
2022/09/07 07:05:43;;;;;;;9.13;4.10;;;16.60;1.00;;;;;;5049313;28;20453;-82
2022/09/07 07:08:09;;;;;;;6.73;4.30;;;16.70;1.00;;;;;;5049172;28;20466;-81
2022/09/07 07:10:38;;;;;;;9.13;5.20;;;16.70;1.00;;;;;;5049412;28;20481;-80
2022/09/07 07:13:05;;;;;;;8.13;4.73;;;16.70;1.00;;;;;;5050130;28;20611;-81
2022/09/07 07:15:33;;;;;;;7.73;4.60;;;16.70;1.00;;;;;;5048545;28;20514;-81
2022/09/07 07:18:00;;;;;;;9.43;4.93;;;16.80;1.00;;;;;;5053580;28;20503;-82
2022/09/07 07:20:28;;;;;;;6.40;5.00;;;16.80;1.00;;;;;;5058106;28;20502;-80
2022/09/07 07:22:55;;;;;;;18.10;11.70;;;16.90;1.00;;;;;;5053360;28;20442;-80
2022/09/07 07:25:22;;;;;;;25.50;6.40;;;16.90;1.00;;;;;;5044831;28;20451;-81
2022/09/07 07:27:52;;;;;;;9.53;4.80;;;17.00;1.00;;;;;;5046807;28;20879;-82
2022/09/07 07:30:19;;;;;;;9.23;4.90;;;17.10;1.00;;;;;;5049678;28;20489;-81
2022/09/07 07:32:46;;;;;;;20.40;5.60;;;17.20;1.00;;;;;;5050030;28;20454;-83
2022/09/07 07:35:14;;;;;;;10.43;5.07;;;17.20;1.00;;;;;;5049595;28;20945;-80
2022/09/07 07:37:43;;;;;;;6.87;5.03;;;17.30;1.00;;;;;;5050076;28;20529;-80
2022/09/07 07:40:12;;;;;;;13.17;5.80;;;17.40;1.00;;;;;;5045966;28;20449;-82
2022/09/07 07:42:40;;;;;;;8.63;6.97;;;17.50;1.00;;;;;;5054511;28;20457;-80
2022/09/07 07:45:09;;;;;;;9.40;5.37;;;17.60;1.00;;;;;;5055848;28;20477;-83
2022/09/07 07:47:35;;;;;;;7.23;5.40;;;17.80;1.00;;;;;;5055876;28;20466;-83
2022/09/07 07:50:03;;;;;;;15.00;9.00;;;17.80;1.00;;;;;;5052051;28;20482;-81
2022/09/07 07:52:34;;;;;;;9.43;5.83;;;17.90;1.00;;;;;;5053157;28;20473;-79
2022/09/07 07:55:03;;;;;;;16.90;8.07;;;17.90;1.00;;;;;;5051433;28;20451;-82
2022/09/07 07:57:30;;;;;;;13.87;5.97;;;17.90;1.00;;;;;;5051048;28;20473;-80
2022/09/07 07:59:57;;;;;;;8.40;5.17;;;17.90;1.00;;;;;;5049404;28;20434;-82
2022/09/07 08:02:24;;;;;;;20.40;7.97;;;18.00;1.00;;;;;;5050725;28;20446;-81
2022/09/07 08:04:51;;;;;;;384.23;37.40;;;18.10;1.00;;;;;;5050178;28;20462;-80
2022/09/07 08:07:19;;;;;;;48.07;9.60;;;18.10;1.00;;;;;;5051470;28;20487;-79
2022/09/07 08:09:47;;;;;;;23.57;7.50;;;18.20;1.00;;;;;;5049140;28;20489;-80
2022/09/07 08:12:17;;;;;;;291.67;26.67;;;18.30;1.00;;;;;;5049724;28;20469;-82
2022/09/07 08:14:46;;;;;;;32.50;11.90;;;18.40;1.00;;;;;;5049914;28;20496;-82
2022/09/07 08:17:15;;;;;;;10.77;6.20;;;18.40;1.00;;;;;;5066250;22;20486;-72
2022/09/07 08:19:42;;;;;;;5.37;4.93;;;18.50;1.00;;;;;;5034631;28;20442;-71
2022/09/07 08:22:09;;;;;;;5.97;5.30;;;18.60;1.00;;;;;;5034537;28;20943;-72
2022/09/07 08:24:36;;;;;;;6.63;5.10;;;18.70;1.00;;;;;;5034800;28;20849;-71
2022/09/07 08:27:03;;;;;;;42.87;10.90;;;18.80;1.00;;;;;;5034532;28;20471;-72
2022/09/07 08:29:31;;;;;;;13.53;5.77;;;18.90;1.00;;;;;;5034132;28;20478;-71
2022/09/07 08:31:58;;;;;;;9.40;6.57;;;19.00;1.00;;;;;;5034160;28;20512;-71
2022/09/07 08:34:25;;;;;;;8.30;5.93;;;19.00;1.00;;;;;;5034222;28;20447;-71
2022/09/07 08:36:51;;;;;;;22.60;7.07;;;19.10;1.00;;;;;;5034456;28;20869;-71
2022/09/07 08:39:18;;;;;;;8.37;5.97;;;19.20;26.70;;;;;;5034664;28;20445;-72
2022/09/07 08:42:07;;;;;;;6.60;5.43;;;19.30;1.00;;;;;;5034605;28;20489;-71
2022/09/07 08:44:41;;;;;;;7.33;5.77;;;19.40;1.00;;;;;;5035171;28;20443;-72
2022/09/07 08:47:24;;;;;;;9.50;6.50;;;19.40;1.00;;;;;;5034250;28;20462;-71
2022/09/07 08:49:56;;;;;;;8.07;6.00;;;19.40;1.00;;;;;;5034046;28;20481;-72
2022/09/07 08:52:26;;;;;;;8.30;6.00;;;19.40;1.00;;;;;;5034088;28;20938;-72
2022/09/07 08:55:00;;;;;;;10.93;6.40;;;19.50;1.00;;;;;;5034287;28;20435;-72
2022/09/07 08:57:30;;;;;;;8.73;6.80;;;19.60;1.00;;;;;;5034179;28;20528;-71
2022/09/07 09:00:05;;;;;;;8.50;6.80;;;19.70;1.00;;;;;;5034376;28;20500;-72
2022/09/07 09:02:32;;;;;;;11.73;7.67;;;19.80;1.00;;;;;;5033983;28;20444;-72
2022/09/07 09:04:59;;;;;;;8.40;6.70;;;19.90;1.00;;;;;;5033932;28;20817;-72
2022/09/07 09:07:36;;;;;;;9.60;6.00;;;20.00;1.00;;;;;;5033819;28;20474;-73
2022/09/07 09:10:16;;;;;;;12.40;7.23;;;20.10;1.00;;;;;;5033780;28;20470;-72
2022/09/07 09:12:57;;;;;;;12.63;7.63;;;20.20;1.00;;;;;;5033656;28;20526;-71
2022/09/07 09:15:34;;;;;;;9.73;6.70;;;20.30;1.00;;;;;;5033518;28;20460;-72
2022/09/07 09:18:06;;;;;;;6.77;5.83;;;20.40;1.00;;;;;;5032901;28;20512;-72
2022/09/07 09:20:40;;;;;;;7.23;6.53;;;20.50;1.00;;;;;;5033215;28;20431;-73
2022/09/07 09:23:12;;;;;;;7.97;6.07;;;20.50;1.00;;;;;;5033688;28;20506;-73
2022/09/07 09:25:42;;;;;;;9.93;8.00;;;20.60;1.00;;;;;;5034176;28;20442;-73
2022/09/07 09:28:11;;;;;;;9.87;8.27;;;20.60;1.00;;;;;;5033567;28;20805;-71
2022/09/07 09:30:39;;;;;;;14.23;7.27;;;20.70;1.00;;;;;;5033321;28;20489;-73
2022/09/07 09:33:15;;;;;;;9.20;8.30;;;20.70;1.00;;;;;;5033376;28;20457;-71
2022/09/07 09:35:43;;;;;;;8.13;7.40;;;20.70;1.00;;;;;;5033379;28;20849;-70
2022/09/07 09:38:32;;;;;;;8.73;7.20;;;20.70;1.00;;;;;;5032826;28;20584;-72
2022/09/07 09:41:03;;;;;;;9.03;7.33;;;20.80;1.00;;;;;;5033363;28;20426;-72
2022/09/07 09:43:36;;;;;;;7.90;7.20;;;20.80;1.00;;;;;;5033506;28;20541;-72
2022/09/07 09:46:17;;;;;;;10.23;8.80;;;20.90;1.00;;;;;;5033835;28;20439;-72
2022/09/07 09:48:49;;;;;;;10.00;7.63;;;21.00;1.00;;;;;;5033272;28;20565;-71
2022/09/07 09:51:16;;;;;;;12.33;8.77;;;21.10;1.00;;;;;;5032973;28;20466;-73
2022/09/07 09:53:52;;;;;;;23.70;10.03;;;21.10;1.00;;;;;;5033366;28;20446;-72
2022/09/07 09:56:18;;;;;;;9.43;7.07;;;21.20;1.00;;;;;;5033606;28;20434;-72
2022/09/07 09:58:46;;;;;;;20.47;7.93;;;21.20;1.00;;;;;;5033176;28;20471;-72
2022/09/07 10:01:23;;;;;;;20.60;9.40;;;21.30;1.00;;;;;;5033464;28;20443;-72
2022/09/07 10:03:50;;;;;;;7.17;6.43;;;21.30;1.00;;;;;;5032884;28;20431;-72
2022/09/07 10:06:18;;;;;;;9.40;8.00;;;21.40;1.00;;;;;;5032976;28;20451;-71
2022/09/07 10:08:54;;;;;;;20.00;8.13;;;21.40;1.00;;;;;;5032819;28;20474;-72
2022/09/07 10:11:40;;;;;;;22.40;9.17;;;21.50;1.00;;;;;;5032998;28;20807;-72
2022/09/07 10:14:19;;;;;;;43.00;9.73;;;21.50;1.00;;;;;;5032818;28;20431;-72
2022/09/07 10:16:47;;;;;;;23.80;10.73;;;21.60;1.00;;;;;;5032837;28;20508;-71
2022/09/07 10:19:26;;;;;;;27.10;9.33;;;21.70;1.00;;;;;;5032858;28;20431;-72
2022/09/07 10:21:56;;;;;;;40.97;11.17;;;21.80;1.00;;;;;;5032692;28;20438;-72
2022/09/07 10:24:26;;;;;;;9.07;7.97;;;21.80;1.00;;;;;;5032853;28;20451;-72
2022/09/07 10:26:53;;;;;;;13.30;8.47;;;21.80;1.00;;;;;;5032439;28;20553;-72
2022/09/07 10:29:27;;;;;;;9.43;8.50;;;21.80;1.00;;;;;;5032867;28;20797;-72
2022/09/07 10:32:24;;;;;;;10.63;7.80;;;21.90;1.00;;;;;;5032844;28;20470;-72
2022/09/07 10:35:05;;;;;;;10.90;9.03;;;21.90;1.00;;;;;;5032812;28;20427;-72
2022/09/07 10:37:42;;;;;;;9.43;8.10;;;22.00;1.00;;;;;;5032649;28;20832;-72
2022/09/07 10:40:20;;;;;;;11.80;9.90;;;22.00;1.00;;;;;;5032918;28;20488;-72
2022/09/07 10:42:53;;;;;;;14.13;9.00;;;22.10;1.00;;;;;;5032815;28;20493;-72
2022/09/07 10:45:23;;;;;;;14.97;8.90;;;22.10;1.00;;;;;;5032918;28;20426;-72
2022/09/07 10:47:59;;;;;;;14.10;10.67;;;22.20;1.00;;;;;;5032666;28;20459;-72
2022/09/07 10:50:31;;;;;;;20.53;9.57;;;22.30;1.00;;;;;;5032358;28;20473;-72
2022/09/07 10:53:14;;;;;;;9.00;8.10;;;22.30;1.00;;;;;;5032734;28;20446;-72
2022/09/07 10:55:48;;;;;;;30.63;10.13;;;22.40;1.00;;;;;;5032201;28;20948;-72
2022/09/07 10:58:25;;;;;;;18.70;8.90;;;22.40;1.00;;;;;;5032803;28;20467;-72
2022/09/07 11:01:05;;;;;;;21.33;9.73;;;22.50;1.00;;;;;;5032760;28;20427;-72
2022/09/07 11:03:52;;;;;;;10.30;9.20;;;22.50;1.00;;;;;;5033146;28;21008;-72
2022/09/07 11:06:25;;;;;;;15.50;8.60;;;22.60;1.00;;;;;;5032771;28;20431;-72
2022/09/07 11:09:06;;;;;;;9.10;8.20;;;22.60;1.00;;;;;;5032884;28;20907;-72
2022/09/07 11:11:37;;;;;;;12.07;8.87;;;22.70;1.00;;;;;;5032498;28;20462;-72
2022/09/07 11:14:09;;;;;;;15.50;9.80;;;22.70;1.00;;;;;;5032488;28;20541;-72
2022/09/07 11:16:42;;;;;;;11.93;8.67;;;22.60;1.00;;;;;;5031974;28;20452;-72
2022/09/07 11:19:16;;;;;;;18.53;9.50;;;22.70;1.00;;;;;;5032614;28;20510;-72
2022/09/07 11:21:48;;;;;;;15.97;10.13;;;22.80;1.00;;;;;;5032569;28;20419;-74
2022/09/07 11:24:26;;;;;;;20.10;9.40;;;22.80;1.00;;;;;;5032567;28;20431;-72
2022/09/07 11:26:58;;;;;;;10.03;8.93;;;22.90;1.00;;;;;;5035697;28;20984;-71
2022/09/07 11:29:32;;;;;;;20.80;12.23;;;22.90;1.00;;;;;;5035977;28;20431;-73
2022/09/07 11:32:04;;;;;;;13.50;9.47;;;23.00;1.00;;;;;;5036374;28;20481;-72
2022/09/07 11:34:38;;;;;;;10.10;9.10;;;23.10;1.00;;;;;;5035648;28;20434;-72
2022/09/07 11:37:10;;;;;;;10.57;9.53;;;23.20;1.00;;;;;;5035566;28;20477;-72
2022/09/07 11:39:43;;;;;;;10.17;9.17;;;23.30;1.00;;;;;;5035416;28;20439;-72
2022/09/07 11:42:18;;;;;;;8.83;8.03;;;23.30;1.00;;;;;;5035496;28;20449;-73
2022/09/07 11:44:48;;;;;;;23.13;10.23;;;23.30;1.00;;;;;;5035636;28;20430;-71
2022/09/07 11:47:22;;;;;;;25.40;10.77;;;23.50;1.00;;;;;;5035447;28;20520;-73
2022/09/07 11:49:53;;;;;;;23.23;10.40;;;23.30;1.00;;;;;;5035359;28;20480;-72
2022/09/07 11:52:31;;;;;;;10.10;9.10;;;23.30;1.00;;;;;;5036154;28;20427;-73
2022/09/07 11:55:01;;;;;;;12.03;10.57;;;23.40;1.00;;;;;;5035497;28;20766;-72
2022/09/07 11:57:43;;;;;;;14.90;10.80;;;23.40;1.00;;;;;;5035527;28;20478;-72
2022/09/07 12:00:17;;;;;;;10.13;8.73;;;23.30;1.00;;;;;;5035214;28;20521;-72
2022/09/07 12:03:12;;;;;;;10.20;9.30;;;23.30;1.00;;;;;;5035678;28;20810;-72
2022/09/07 12:06:07;;;;;;;11.80;9.40;;;23.30;1.00;;;;;;5035604;28;20430;-72
2022/09/07 12:08:48;;;;;;;10.20;9.30;;;23.30;1.00;;;;;;5035384;28;20477;-72
2022/09/07 12:11:36;;;;;;;10.87;9.73;;;23.30;1.00;;;;;;5035570;28;20834;-72
2022/09/07 12:14:26;;;;;;;10.57;9.57;;;23.30;1.00;;;;;;5035948;28;20542;-72
2022/09/07 12:17:14;;;;;;;9.40;8.23;;;23.50;1.00;;;;;;5035219;28;20577;-71
2022/09/07 12:19:40;;;;;;;11.80;9.40;;;23.60;1.00;;;;;;5035647;28;20423;-72
2022/09/07 12:22:20;;;;;;;10.03;9.10;;;23.70;1.00;;;;;;5035271;28;20438;-71
2022/09/07 12:24:50;;;;;;;10.30;9.00;;;23.90;1.00;;;;;;5035265;28;20427;-72
2022/09/07 12:27:38;;;;;;;11.00;10.00;;;23.90;1.00;;;;;;5035228;28;20897;-71
2022/09/07 12:30:50;;;;;;;13.60;12.40;;;24.00;1.00;;;;;;5035152;28;20896;-71
2022/09/07 12:33:27;;;;;;;11.20;10.20;;;24.10;1.00;;;;;;5007753;28;20439;-73
2022/09/07 12:35:57;;;;;;;13.67;10.67;;;24.10;1.00;;;;;;5035174;28;20913;-74
2022/09/07 12:38:58;;;;;;;12.50;11.30;;;24.10;1.00;;;;;;5035405;28;20843;-72
2022/09/07 12:41:41;;;;;;;11.83;9.67;;;24.00;1.00;;;;;;5034460;28;20468;-72
2022/09/07 12:44:16;;;;;;;10.10;8.43;;;24.00;1.00;;;;;;5034922;28;20435;-72
2022/09/07 12:46:48;;;;;;;9.80;9.00;;;23.60;1.00;;;;;;5034274;28;20445;-72
2022/09/07 12:49:57;;;;;;;10.87;9.87;;;23.90;1.00;;;;;;5034732;28;20490;-72
2022/09/07 12:52:47;;;;;;;9.80;8.90;;;23.80;1.00;;;;;;5036288;28;20478;-72
2022/09/07 12:55:42;;;;;;;10.40;9.37;;;23.70;1.00;;;;;;5034416;28;20455;-72
2022/09/07 12:58:34;;;;;;;12.87;9.10;;;23.70;1.00;;;;;;5021534;28;20853;-71
2022/09/07 13:01:21;;;;;;;9.40;8.70;;;23.60;1.00;;;;;;5034896;28;20767;-72
2022/09/07 13:04:30;;;;;;;11.80;10.00;;;23.60;1.00;;;;;;5035755;28;20430;-72
2022/09/07 13:07:24;;;;;;;14.50;10.27;;;23.50;1.00;;;;;;5034167;28;20470;-71
2022/09/07 13:09:56;;;;;;;10.63;9.47;;;23.40;1.00;;;;;;5034041;28;20450;-72
2022/09/07 13:12:30;;;;;;;9.83;8.93;;;23.40;1.00;;;;;;5034310;28;20829;-72
2022/09/07 13:14:59;;;;;;;13.20;10.77;;;23.40;1.00;;;;;;5034082;28;20516;-72